createdAt,value
2018-11-11T00:00:25.639Z,13.2
2018-11-11T00:01:26.366Z,13.1
2018-11-11T00:02:27.090Z,13.0
2018-11-11T00:03:27.807Z,13.1
2018-11-11T00:04:29.236Z,13.1
2018-11-11T00:05:30.221Z,13.1
2018-11-11T00:06:31.004Z,13.0
2018-11-11T00:07:31.742Z,13.0
2018-11-11T00:08:32.720Z,12.9
2018-11-11T00:09:34.283Z,13.0
2018-11-11T00:10:35.285Z,13.0
2018-11-11T00:11:36.190Z,13.0
2018-11-11T00:12:36.903Z,13.0
2018-11-11T00:13:37.646Z,13.0
2018-11-11T00:14:38.470Z,12.9
2018-11-11T00:15:39.195Z,12.9
2018-11-11T00:16:39.910Z,12.9
2018-11-11T00:17:40.675Z,12.9
2018-11-11T00:18:41.398Z,12.8
2018-11-11T00:19:42.175Z,12.8
2018-11-11T00:20:42.910Z,12.8
2018-11-11T00:21:43.664Z,12.8
2018-11-11T00:22:44.373Z,12.8
2018-11-11T00:23:45.092Z,12.8
2018-11-11T00:24:45.810Z,12.8
2018-11-11T00:25:46.544Z,12.8
2018-11-11T00:26:47.257Z,12.8
2018-11-11T00:27:47.981Z,12.8
2018-11-11T00:28:48.967Z,12.8
2018-11-11T00:29:49.748Z,12.8
2018-11-11T00:30:51.014Z,12.8
2018-11-11T00:31:51.818Z,12.7
2018-11-11T00:32:52.957Z,12.7
2018-11-11T00:33:53.995Z,12.7
2018-11-11T00:34:54.738Z,12.6
2018-11-11T00:35:56.941Z,12.7
2018-11-11T00:36:58.962Z,12.8
2018-11-11T00:38:01.064Z,12.8
2018-11-11T00:39:02.613Z,12.8
2018-11-11T00:40:04.862Z,12.8
2018-11-11T00:41:07.426Z,12.9
2018-11-11T00:42:09.588Z,12.9
2018-11-11T00:43:11.692Z,13.0
2018-11-11T00:44:13.821Z,12.9
2018-11-11T00:45:16.008Z,12.9
2018-11-11T00:46:18.042Z,12.9
2018-11-11T00:47:20.047Z,12.9
2018-11-11T00:48:21.611Z,12.9
2018-11-11T00:49:23.915Z,13.0
2018-11-11T00:50:25.806Z,13.1
2018-11-11T00:51:28.400Z,13.1
2018-11-11T00:52:30.358Z,13.2
2018-11-11T00:53:32.325Z,13.3
2018-11-11T00:54:34.553Z,13.3
2018-11-11T00:55:36.657Z,13.3
2018-11-11T00:56:38.878Z,13.2
2018-11-11T00:57:40.865Z,13.4
2018-11-11T00:58:43.154Z,13.5
2018-11-11T00:59:44.293Z,13.5
2018-11-11T01:00:45.986Z,13.5
2018-11-11T01:01:48.315Z,13.5
2018-11-11T01:02:50.140Z,13.5
2018-11-11T01:03:51.372Z,13.4
2018-11-11T01:04:53.565Z,13.4
2018-11-11T01:05:55.780Z,13.3
2018-11-11T01:06:58.426Z,13.3
2018-11-11T01:08:00.186Z,13.3
2018-11-11T01:09:01.334Z,13.3
2018-11-11T01:10:03.016Z,13.3
2018-11-11T01:11:04.879Z,13.4
2018-11-11T01:12:06.899Z,13.4
2018-11-11T01:13:08.734Z,13.4
2018-11-11T01:14:10.957Z,13.4
2018-11-11T01:15:12.532Z,13.4
2018-11-11T01:16:14.652Z,13.4
2018-11-11T01:17:16.828Z,13.4
2018-11-11T01:18:17.735Z,13.3
2018-11-11T01:19:18.528Z,13.4
2018-11-11T01:20:19.268Z,13.5
2018-11-11T01:21:20.057Z,13.4
2018-11-11T01:22:20.793Z,13.4
2018-11-11T01:23:21.525Z,13.3
2018-11-11T01:25:37.777Z,13.5
2018-11-11T01:26:39.425Z,13.5
2018-11-11T01:27:41.027Z,13.5
2018-11-11T01:28:42.136Z,13.5
2018-11-11T01:29:42.871Z,13.6
2018-11-11T01:30:44.330Z,13.6
2018-11-11T01:31:45.623Z,13.5
2018-11-11T01:32:46.358Z,13.5
2018-11-11T01:33:48.021Z,13.5
2018-11-11T01:34:48.730Z,13.4
2018-11-11T01:35:49.892Z,13.4
2018-11-11T01:36:50.612Z,13.4
2018-11-11T01:37:51.993Z,13.4
2018-11-11T01:38:52.849Z,13.4
2018-11-11T01:39:53.579Z,13.3
2018-11-11T01:40:54.831Z,13.4
2018-11-11T01:41:56.097Z,13.5
2018-11-11T01:42:56.882Z,13.6
2018-11-11T01:43:57.999Z,13.5
2018-11-11T01:44:58.905Z,13.5
2018-11-11T01:46:00.120Z,13.5
2018-11-11T01:47:00.977Z,13.6
2018-11-11T01:48:01.861Z,13.5
2018-11-11T01:49:02.920Z,13.5
2018-11-11T01:50:03.748Z,13.5
2018-11-11T01:51:04.607Z,13.4
2018-11-11T01:52:05.345Z,13.5
2018-11-11T01:53:06.297Z,13.6
2018-11-11T01:54:07.045Z,13.5
2018-11-11T01:55:08.063Z,13.4
2018-11-11T01:56:08.780Z,13.5
2018-11-11T01:57:09.836Z,13.5
2018-11-11T01:58:10.570Z,13.4
2018-11-11T01:59:11.662Z,13.4
2018-11-11T02:00:12.385Z,13.4
2018-11-11T02:01:13.122Z,13.2
2018-11-11T02:02:13.834Z,13.4
2018-11-11T02:03:14.824Z,13.3
2018-11-11T02:04:15.967Z,13.2
2018-11-11T02:05:16.837Z,13.2
2018-11-11T02:06:17.992Z,13.2
2018-11-11T02:07:18.757Z,13.1
2018-11-11T02:08:19.686Z,13.0
2018-11-11T02:09:20.412Z,13.0
2018-11-11T02:10:21.149Z,12.9
2018-11-11T02:11:22.163Z,12.9
2018-11-11T02:12:22.896Z,12.9
2018-11-11T02:13:24.241Z,12.8
2018-11-11T02:14:24.964Z,12.7
2018-11-11T02:15:26.079Z,12.7
2018-11-11T02:16:26.802Z,12.7
2018-11-11T02:17:27.530Z,12.7
2018-11-11T02:18:28.494Z,12.6
2018-11-11T02:19:29.864Z,12.6
2018-11-11T02:20:30.587Z,12.6
2018-11-11T02:21:31.405Z,12.6
2018-11-11T02:22:32.126Z,12.7
2018-11-11T02:23:32.860Z,12.8
2018-11-11T02:24:33.672Z,12.7
2018-11-11T02:25:34.389Z,12.8
2018-11-11T02:26:35.461Z,12.7
2018-11-11T02:27:36.176Z,12.8
2018-11-11T02:28:37.225Z,12.7
2018-11-11T02:29:38.250Z,12.7
2018-11-11T02:30:39.800Z,12.7
2018-11-11T02:31:40.540Z,12.7
2018-11-11T02:32:41.570Z,12.7
2018-11-11T02:33:42.294Z,12.7
2018-11-11T02:34:43.027Z,12.8
2018-11-11T02:35:43.752Z,12.7
2018-11-11T02:36:44.471Z,12.7
2018-11-11T02:37:45.262Z,12.7
2018-11-11T02:38:45.968Z,12.8
2018-11-11T02:39:46.682Z,12.8
2018-11-11T02:40:47.662Z,12.8
2018-11-11T02:41:48.380Z,12.9
2018-11-11T02:42:49.090Z,12.8
2018-11-11T02:43:49.821Z,12.7
2018-11-11T02:44:50.815Z,12.8
2018-11-11T02:45:51.539Z,12.9
2018-11-11T02:46:52.288Z,12.8
2018-11-11T02:47:53.010Z,13.0
2018-11-11T02:48:53.742Z,12.9
2018-11-11T02:49:54.462Z,13.0
2018-11-11T02:50:55.172Z,13.0
2018-11-11T02:51:56.138Z,13.0
2018-11-11T02:52:56.861Z,13.0
2018-11-11T02:53:57.574Z,13.0
2018-11-11T02:54:58.594Z,13.0
2018-11-11T02:55:59.327Z,13.0
2018-11-11T02:57:00.048Z,12.9
2018-11-11T02:58:00.765Z,12.9
2018-11-11T02:59:01.490Z,13.0
2018-11-11T03:00:02.258Z,12.9
2018-11-11T03:01:02.967Z,12.9
2018-11-11T03:02:03.689Z,13.0
2018-11-11T03:03:04.409Z,12.9
2018-11-11T03:04:05.175Z,12.9
2018-11-11T03:05:05.900Z,13.0
2018-11-11T03:06:06.878Z,12.9
2018-11-11T03:07:07.589Z,12.9
2018-11-11T03:08:08.308Z,12.8
2018-11-11T03:09:09.027Z,12.8
2018-11-11T03:10:09.763Z,12.7
2018-11-11T03:11:10.491Z,12.6
2018-11-11T03:12:11.199Z,12.7
2018-11-11T03:13:11.924Z,12.5
2018-11-11T03:14:12.645Z,12.5
2018-11-11T03:15:13.357Z,12.5
2018-11-11T03:16:14.082Z,12.4
2018-11-11T03:17:14.811Z,12.4
2018-11-11T03:18:15.542Z,12.3
2018-11-11T03:19:16.254Z,12.3
2018-11-11T03:20:17.071Z,12.3
2018-11-11T03:21:18.056Z,12.2
2018-11-11T03:22:18.799Z,12.2
2018-11-11T03:23:20.001Z,12.2
2018-11-11T03:24:20.742Z,12.1
2018-11-11T03:25:21.525Z,12.1
2018-11-11T03:26:22.395Z,12.0
2018-11-11T03:27:23.285Z,12.0
2018-11-11T03:28:24.195Z,11.9
2018-11-11T03:29:24.918Z,11.8
2018-11-11T03:30:25.727Z,11.7
2018-11-11T03:31:26.762Z,11.7
2018-11-11T03:32:27.570Z,11.7
2018-11-11T03:33:28.312Z,11.7
2018-11-11T03:34:29.134Z,11.7
2018-11-11T03:35:29.843Z,11.7
2018-11-11T03:36:30.571Z,11.9
2018-11-11T03:37:31.285Z,11.9
2018-11-11T03:38:32.007Z,12.0
2018-11-11T03:39:32.736Z,11.9
2018-11-11T03:40:33.516Z,11.9
2018-11-11T03:41:34.225Z,11.8
2018-11-11T03:42:34.949Z,11.8
2018-11-11T03:43:35.670Z,11.7
2018-11-11T03:44:36.397Z,11.7
2018-11-11T03:45:37.173Z,11.7
2018-11-11T03:46:37.903Z,11.7
2018-11-11T03:47:38.630Z,11.7
2018-11-11T03:48:39.358Z,11.7
2018-11-11T03:49:40.073Z,11.6
2018-11-11T03:50:40.782Z,11.6
2018-11-11T03:51:41.492Z,11.7
2018-11-11T03:52:42.214Z,11.7
2018-11-11T03:53:42.926Z,11.7
2018-11-11T03:54:43.652Z,11.6
2018-11-11T03:55:44.375Z,11.6
2018-11-11T03:56:45.115Z,11.6
2018-11-11T03:57:45.838Z,11.7
2018-11-11T03:58:46.601Z,11.7
2018-11-11T03:59:47.272Z,11.7
2018-11-11T04:00:47.997Z,11.7
2018-11-11T04:01:48.966Z,11.8
2018-11-11T04:02:49.684Z,11.7
2018-11-11T04:03:50.406Z,11.7
2018-11-11T04:04:51.120Z,11.7
2018-11-11T04:05:51.857Z,11.7
2018-11-11T04:06:52.827Z,11.6
2018-11-11T04:07:53.633Z,11.8
2018-11-11T04:08:54.356Z,11.7
2018-11-11T04:09:55.076Z,11.7
2018-11-11T04:10:55.794Z,11.8
2018-11-11T04:11:56.527Z,11.7
2018-11-11T04:12:57.307Z,11.7
2018-11-11T04:13:58.038Z,11.7
2018-11-11T04:14:58.748Z,11.7
2018-11-11T04:15:59.475Z,11.7
2018-11-11T04:17:00.207Z,11.7
2018-11-11T04:18:01.017Z,11.7
2018-11-11T04:19:01.729Z,11.6
2018-11-11T04:20:02.455Z,11.7
2018-11-11T04:21:03.230Z,11.7
2018-11-11T04:22:03.916Z,11.7
2018-11-11T04:23:04.725Z,11.7
2018-11-11T04:24:05.454Z,11.6
2018-11-11T04:25:06.187Z,11.8
2018-11-11T04:26:06.905Z,11.7
2018-11-11T04:27:07.613Z,11.7
2018-11-11T04:28:08.385Z,11.6
2018-11-11T04:29:09.114Z,11.7
2018-11-11T04:30:09.830Z,11.7
2018-11-11T04:31:10.544Z,11.7
2018-11-11T04:32:11.262Z,11.7
2018-11-11T04:33:12.238Z,11.8
2018-11-11T04:34:12.950Z,11.7
2018-11-11T04:35:13.670Z,11.8
2018-11-11T04:36:14.650Z,11.7
2018-11-11T04:37:15.381Z,11.9
2018-11-11T04:38:16.105Z,11.8
2018-11-11T04:39:16.903Z,11.8
2018-11-11T04:40:17.540Z,11.7
2018-11-11T04:41:18.262Z,11.8
2018-11-11T04:42:18.976Z,11.7
2018-11-11T04:43:19.695Z,11.7
2018-11-11T04:44:20.418Z,11.7
2018-11-11T04:45:21.237Z,11.7
2018-11-11T04:46:21.969Z,11.7
2018-11-11T04:47:22.671Z,11.7
2018-11-11T04:48:23.389Z,11.7
2018-11-11T04:49:24.102Z,11.8
2018-11-11T04:50:24.881Z,11.7
2018-11-11T04:51:25.607Z,11.8
2018-11-11T04:52:26.320Z,11.7
2018-11-11T04:53:27.046Z,11.7
2018-11-11T04:54:27.762Z,11.7
2018-11-11T04:55:28.478Z,11.6
2018-11-11T04:56:29.197Z,11.7
2018-11-11T04:57:29.910Z,11.7
2018-11-11T04:58:30.637Z,11.7
2018-11-11T04:59:31.371Z,11.8
2018-11-11T05:00:32.081Z,11.8
2018-11-11T05:01:32.931Z,11.8
2018-11-11T05:02:33.521Z,11.9
2018-11-11T05:03:34.234Z,11.9
2018-11-11T05:04:34.969Z,11.8
2018-11-11T05:05:35.659Z,11.9
2018-11-11T05:06:36.379Z,11.8
2018-11-11T05:07:37.099Z,11.9
2018-11-11T05:08:37.817Z,11.8
2018-11-11T05:09:38.537Z,11.8
2018-11-11T05:10:39.262Z,11.8
2018-11-11T05:11:39.984Z,11.7
2018-11-11T05:12:40.720Z,11.8
2018-11-11T05:13:41.425Z,11.8
2018-11-11T05:14:42.397Z,11.8
2018-11-11T05:15:43.131Z,11.8
2018-11-11T05:16:43.855Z,11.8
2018-11-11T05:17:44.577Z,11.9
2018-11-11T05:18:45.467Z,12.0
2018-11-11T05:19:46.188Z,12.1
2018-11-11T05:20:46.902Z,12.2
2018-11-11T05:21:47.690Z,12.2
2018-11-11T05:22:48.348Z,12.2
2018-11-11T05:23:49.079Z,12.2
2018-11-11T05:24:49.787Z,12.3
2018-11-11T05:25:50.510Z,12.1
2018-11-11T05:26:51.224Z,12.2
2018-11-11T05:27:51.947Z,12.2
2018-11-11T05:28:52.660Z,12.3
2018-11-11T05:29:53.386Z,12.4
2018-11-11T05:30:54.216Z,12.4
2018-11-11T05:31:54.881Z,12.4
2018-11-11T05:32:55.606Z,12.3
2018-11-11T05:33:56.327Z,12.2
2018-11-11T05:34:57.043Z,12.1
2018-11-11T05:35:57.859Z,12.2
2018-11-11T05:36:58.579Z,12.2
2018-11-11T05:37:59.290Z,12.2
2018-11-11T05:39:00.040Z,12.1
2018-11-11T05:40:00.764Z,12.1
2018-11-11T05:41:01.541Z,12.1
2018-11-11T05:42:02.302Z,12.0
2018-11-11T05:43:03.028Z,12.0
2018-11-11T05:44:03.734Z,11.9
2018-11-11T05:45:04.459Z,11.9
2018-11-11T05:46:05.280Z,11.9
2018-11-11T05:47:06.002Z,12.0
2018-11-11T05:48:06.755Z,12.0
2018-11-11T05:49:07.479Z,12.0
2018-11-11T05:50:08.201Z,12.2
2018-11-11T05:51:08.948Z,12.2
2018-11-11T05:52:09.659Z,12.2
2018-11-11T05:53:10.621Z,12.2
2018-11-11T05:54:11.358Z,12.1
2018-11-11T05:55:12.072Z,12.0
2018-11-11T05:56:12.793Z,12.1
2018-11-11T05:57:13.905Z,12.0
2018-11-11T05:58:14.627Z,12.0
2018-11-11T05:59:15.361Z,12.0
2018-11-11T06:00:16.082Z,11.9
2018-11-11T06:01:16.802Z,11.9
2018-11-11T06:02:17.518Z,11.9
2018-11-11T06:03:18.240Z,12.0
2018-11-11T06:04:19.062Z,12.1
2018-11-11T06:05:19.781Z,12.1
2018-11-11T06:06:20.495Z,12.1
2018-11-11T06:07:21.227Z,12.2
2018-11-11T06:08:21.948Z,12.2
2018-11-11T06:09:22.669Z,12.1
2018-11-11T06:10:23.507Z,12.2
2018-11-11T06:11:24.476Z,12.2
2018-11-11T06:12:25.195Z,12.1
2018-11-11T06:13:25.923Z,12.1
2018-11-11T06:14:26.636Z,12.2
2018-11-11T06:15:27.908Z,12.1
2018-11-11T06:16:28.649Z,12.0
2018-11-11T06:17:29.369Z,12.1
2018-11-11T06:18:30.094Z,12.2
2018-11-11T06:19:31.078Z,12.1
2018-11-11T06:20:31.790Z,12.1
2018-11-11T06:21:32.765Z,12.1
2018-11-11T06:22:33.486Z,12.1
2018-11-11T06:23:34.203Z,12.1
2018-11-11T06:24:34.914Z,12.1
2018-11-11T06:25:35.642Z,12.1
2018-11-11T06:26:36.632Z,12.1
2018-11-11T06:27:37.435Z,12.1
2018-11-11T06:28:38.082Z,12.1
2018-11-11T06:29:38.793Z,12.1
2018-11-11T06:30:39.513Z,12.2
2018-11-11T06:31:40.239Z,12.2
2018-11-11T06:32:40.959Z,12.2
2018-11-11T06:33:41.780Z,12.2
2018-11-11T06:34:42.513Z,12.2
2018-11-11T06:35:43.242Z,12.3
2018-11-11T06:36:44.269Z,12.3
2018-11-11T06:37:44.987Z,12.3
2018-11-11T06:38:45.716Z,12.2
2018-11-11T06:39:46.425Z,12.2
2018-11-11T06:40:47.138Z,12.3
2018-11-11T06:41:47.965Z,12.3
2018-11-11T06:42:48.697Z,12.3
2018-11-11T06:43:49.417Z,12.3
2018-11-11T06:44:50.132Z,12.3
2018-11-11T06:45:50.841Z,12.3
2018-11-11T06:46:51.568Z,12.3
2018-11-11T06:47:52.553Z,12.4
2018-11-11T06:48:53.264Z,12.4
2018-11-11T06:49:54.234Z,12.5
2018-11-11T06:50:55.034Z,12.4
2018-11-11T06:51:55.779Z,12.4
2018-11-11T06:52:56.522Z,12.5
2018-11-11T06:53:57.238Z,12.5
2018-11-11T06:54:57.959Z,12.5
2018-11-11T06:55:58.693Z,12.4
2018-11-11T06:56:59.423Z,12.4
2018-11-11T06:58:00.162Z,12.4
2018-11-11T06:59:00.879Z,12.5
2018-11-11T07:00:01.599Z,12.5
2018-11-11T07:01:02.332Z,12.5
2018-11-11T07:02:03.059Z,12.7
2018-11-11T07:03:03.773Z,12.5
2018-11-11T07:04:04.775Z,12.6
2018-11-11T07:05:05.511Z,12.6
2018-11-11T07:06:06.238Z,12.6
2018-11-11T07:07:06.968Z,12.6
2018-11-11T07:08:08.079Z,12.7
2018-11-11T07:09:08.826Z,12.7
2018-11-11T07:10:09.541Z,12.7
2018-11-11T07:11:10.271Z,12.7
2018-11-11T07:12:11.009Z,12.6
2018-11-11T07:13:11.780Z,12.6
2018-11-11T07:14:12.604Z,12.6
2018-11-11T07:15:13.221Z,12.6
2018-11-11T07:16:13.937Z,12.6
2018-11-11T07:17:14.665Z,12.6
2018-11-11T07:18:15.485Z,12.6
2018-11-11T07:19:16.211Z,12.7
2018-11-11T07:20:17.210Z,12.6
2018-11-11T07:21:17.936Z,12.6
2018-11-11T07:22:18.664Z,12.7
2018-11-11T07:23:19.403Z,12.7
2018-11-11T07:24:20.150Z,12.7
2018-11-11T07:25:20.865Z,12.7
2018-11-11T07:26:21.913Z,12.7
2018-11-11T07:27:22.632Z,12.7
2018-11-11T07:28:23.346Z,12.8
2018-11-11T07:29:24.072Z,12.7
2018-11-11T07:30:24.855Z,12.7
2018-11-11T07:31:25.619Z,12.8
2018-11-11T07:32:26.349Z,12.8
2018-11-11T07:33:27.079Z,12.8
2018-11-11T07:34:27.803Z,12.8
2018-11-11T07:35:28.538Z,12.8
2018-11-11T07:36:29.273Z,12.8
2018-11-11T07:37:30.000Z,12.8
2018-11-11T07:38:30.754Z,12.8
2018-11-11T07:39:31.774Z,12.8
2018-11-11T07:40:32.490Z,12.8
2018-11-11T07:41:33.209Z,12.8
2018-11-11T07:42:34.025Z,12.9
2018-11-11T07:43:34.683Z,12.9
2018-11-11T07:44:35.453Z,12.9
2018-11-11T07:45:36.180Z,12.9
2018-11-11T07:46:36.903Z,12.9
2018-11-11T07:47:37.673Z,12.9
2018-11-11T07:48:38.399Z,12.9
2018-11-11T07:49:39.126Z,13.0
2018-11-11T07:50:40.136Z,12.9
2018-11-11T07:51:41.172Z,12.9
2018-11-11T07:52:42.140Z,13.0
2018-11-11T07:53:43.175Z,13.0
2018-11-11T07:54:44.031Z,13.0
2018-11-11T07:55:44.713Z,12.9
2018-11-11T07:56:45.435Z,13.0
2018-11-11T07:57:46.432Z,13.0
2018-11-11T07:58:47.146Z,13.0
2018-11-11T07:59:48.142Z,13.1
2018-11-11T08:00:48.874Z,13.0
2018-11-11T08:01:49.712Z,13.1
2018-11-11T08:02:50.364Z,13.1
2018-11-11T08:03:51.089Z,13.2
2018-11-11T08:04:51.824Z,13.2
2018-11-11T08:05:52.599Z,13.1
2018-11-11T08:06:53.356Z,13.2
2018-11-11T08:07:54.091Z,13.2
2018-11-11T08:08:54.822Z,13.2
2018-11-11T08:09:55.546Z,13.2
2018-11-11T08:10:56.404Z,13.3
2018-11-11T08:11:57.109Z,13.2
2018-11-11T08:12:57.844Z,13.3
2018-11-11T08:13:58.591Z,13.3
2018-11-11T08:14:59.318Z,13.2
2018-11-11T08:16:00.044Z,13.2
2018-11-11T08:17:00.777Z,13.2
2018-11-11T08:18:01.502Z,13.2
2018-11-11T08:19:02.216Z,13.2
2018-11-11T08:20:02.934Z,13.3
2018-11-11T08:21:03.652Z,13.2
2018-11-11T08:22:04.379Z,13.3
2018-11-11T08:23:05.101Z,13.4
2018-11-11T08:24:05.841Z,13.4
2018-11-11T08:25:06.572Z,13.5
2018-11-11T08:26:07.300Z,13.5
2018-11-11T08:27:08.301Z,13.5
2018-11-11T08:28:09.066Z,13.4
2018-11-11T08:29:09.802Z,13.6
2018-11-11T08:30:10.542Z,13.5
2018-11-11T08:31:11.279Z,13.5
2018-11-11T08:32:12.030Z,13.5
2018-11-11T08:33:12.729Z,13.5
2018-11-11T08:34:13.477Z,13.5
2018-11-11T08:35:14.205Z,13.5
2018-11-11T08:36:14.949Z,13.6
2018-11-11T08:37:15.663Z,13.6
2018-11-11T08:38:16.408Z,13.6
2018-11-11T08:39:17.142Z,13.6
2018-11-11T08:40:17.898Z,13.6
2018-11-11T08:41:18.584Z,13.6
2018-11-11T08:42:19.672Z,13.6
2018-11-11T08:43:20.399Z,13.6
2018-11-11T08:44:21.118Z,13.6
2018-11-11T08:45:21.847Z,13.5
2018-11-11T08:46:22.573Z,13.5
2018-11-11T08:47:23.314Z,13.6
2018-11-11T08:48:24.124Z,13.5
2018-11-11T08:49:24.769Z,13.4
2018-11-11T08:50:25.493Z,13.4
2018-11-11T08:51:26.218Z,13.3
2018-11-11T08:52:27.001Z,13.3
2018-11-11T08:53:27.735Z,13.3
2018-11-11T08:54:28.473Z,13.2
2018-11-11T08:55:29.196Z,13.2
2018-11-11T08:56:29.919Z,13.3
2018-11-11T08:57:30.651Z,13.2
2018-11-11T08:58:31.369Z,13.2
2018-11-11T08:59:32.152Z,13.2
2018-11-11T09:00:32.884Z,13.3
2018-11-11T09:01:33.617Z,13.3
2018-11-11T09:02:34.352Z,13.3
2018-11-11T09:03:35.080Z,13.4
2018-11-11T09:04:35.853Z,13.5
2018-11-11T09:05:36.525Z,13.5
2018-11-11T09:06:37.263Z,13.4
2018-11-11T09:07:37.987Z,13.5
2018-11-11T09:08:38.707Z,13.5
2018-11-11T09:09:39.426Z,13.5
2018-11-11T09:10:40.163Z,13.5
2018-11-11T09:11:40.939Z,13.5
2018-11-11T09:12:41.635Z,13.5
2018-11-11T09:13:42.360Z,13.5
2018-11-11T09:14:43.088Z,13.5
2018-11-11T09:15:43.813Z,13.6
2018-11-11T09:16:44.837Z,13.6
2018-11-11T09:17:45.564Z,13.5
2018-11-11T09:18:46.306Z,13.6
2018-11-11T09:19:47.045Z,13.7
2018-11-11T09:20:47.758Z,13.7
2018-11-11T09:21:48.529Z,13.7
2018-11-11T09:22:49.261Z,13.8
2018-11-11T09:23:50.040Z,13.8
2018-11-11T09:24:50.717Z,13.8
2018-11-11T09:25:51.489Z,13.8
2018-11-11T09:26:52.188Z,13.9
2018-11-11T09:27:52.924Z,14.0
2018-11-11T09:28:53.655Z,13.9
2018-11-11T09:29:54.369Z,13.9
2018-11-11T09:30:55.099Z,13.9
2018-11-11T09:31:55.823Z,13.9
2018-11-11T09:32:56.597Z,13.9
2018-11-11T09:33:57.317Z,14.0
2018-11-11T09:34:58.065Z,14.0
2018-11-11T09:35:58.785Z,13.9
2018-11-11T09:36:59.518Z,14.0
2018-11-11T09:38:00.244Z,14.1
2018-11-11T09:39:01.043Z,14.1
2018-11-11T09:40:01.704Z,14.2
2018-11-11T09:41:02.435Z,14.3
2018-11-11T09:42:03.166Z,14.3
2018-11-11T09:43:03.889Z,14.3
2018-11-11T09:44:04.760Z,14.3
2018-11-11T09:45:05.753Z,14.3
2018-11-11T09:46:06.472Z,14.3
2018-11-11T09:47:07.214Z,14.3
2018-11-11T09:48:07.928Z,14.4
2018-11-11T09:49:08.663Z,14.4
2018-11-11T09:50:09.384Z,14.3
2018-11-11T09:51:10.675Z,14.4
2018-11-11T09:52:11.395Z,14.6
2018-11-11T09:53:12.129Z,14.7
2018-11-11T09:54:12.865Z,14.8
2018-11-11T09:55:13.591Z,14.8
2018-11-11T09:56:14.318Z,14.8
2018-11-11T09:57:15.049Z,14.8
2018-11-11T09:58:15.777Z,14.9
2018-11-11T09:59:16.506Z,14.9
2018-11-11T10:00:17.236Z,14.8
2018-11-11T10:01:18.263Z,14.9
2018-11-11T10:02:18.984Z,15.0
2018-11-11T10:03:19.706Z,14.9
2018-11-11T10:04:20.441Z,15.0
2018-11-11T10:05:21.164Z,15.0
2018-11-11T10:06:21.995Z,15.1
2018-11-11T10:07:22.638Z,15.1
2018-11-11T10:08:23.368Z,15.2
2018-11-11T10:09:24.102Z,15.2
2018-11-11T10:10:24.829Z,15.4
2018-11-11T10:11:25.819Z,15.6
2018-11-11T10:12:26.599Z,15.5
2018-11-11T10:13:27.271Z,15.5
2018-11-11T10:14:27.989Z,15.5
2018-11-11T10:15:28.721Z,15.4
2018-11-11T10:16:29.455Z,15.4
2018-11-11T10:17:30.182Z,15.4
2018-11-11T10:18:31.003Z,15.2
2018-11-11T10:19:31.726Z,15.2
2018-11-11T10:20:32.468Z,15.1
2018-11-11T10:21:33.194Z,14.9
2018-11-11T10:22:33.908Z,15.0
2018-11-11T10:23:34.640Z,14.9
2018-11-11T10:24:35.357Z,15.0
2018-11-11T10:25:36.083Z,15.0
2018-11-11T10:26:36.804Z,15.0
2018-11-11T10:27:37.568Z,15.2
2018-11-11T10:28:38.306Z,15.2
2018-11-11T10:29:39.131Z,15.1
2018-11-11T10:30:39.818Z,15.2
2018-11-11T10:31:40.560Z,15.2
2018-11-11T10:32:41.280Z,15.3
2018-11-11T10:33:42.106Z,15.4
2018-11-11T10:34:42.834Z,15.5
2018-11-11T10:35:43.565Z,15.5
2018-11-11T10:36:44.550Z,15.6
2018-11-11T10:37:45.289Z,15.6
2018-11-11T10:38:46.017Z,15.5
2018-11-11T10:39:46.836Z,15.6
2018-11-11T10:40:47.586Z,15.5
2018-11-11T10:41:48.307Z,15.5
2018-11-11T10:42:49.042Z,15.5
2018-11-11T10:43:49.778Z,15.3
2018-11-11T10:44:50.502Z,15.3
2018-11-11T10:45:51.216Z,15.3
2018-11-11T10:46:51.940Z,15.4
2018-11-11T10:47:52.662Z,15.3
2018-11-11T10:48:53.440Z,15.3
2018-11-11T10:49:54.185Z,15.1
2018-11-11T10:50:54.909Z,15.3
2018-11-11T10:51:55.637Z,15.3
2018-11-11T10:52:56.365Z,15.3
2018-11-11T10:53:57.154Z,15.5
2018-11-11T10:54:57.883Z,15.6
2018-11-11T10:55:58.617Z,15.5
2018-11-11T10:56:59.363Z,15.6
2018-11-11T10:58:00.103Z,15.7
2018-11-11T10:59:00.816Z,15.8
2018-11-11T11:00:01.620Z,15.8
2018-11-11T11:01:02.320Z,15.8
2018-11-11T11:02:03.052Z,15.8
2018-11-11T11:03:03.776Z,15.8
2018-11-11T11:04:04.496Z,15.9
2018-11-11T11:05:05.217Z,16.0
2018-11-11T11:06:05.956Z,15.8
2018-11-11T11:07:06.681Z,15.9
2018-11-11T11:08:07.406Z,16.0
2018-11-11T11:09:08.384Z,15.9
2018-11-11T11:10:09.113Z,15.9
2018-11-11T11:11:10.203Z,15.9
2018-11-11T11:12:10.924Z,15.9
2018-11-11T11:13:11.721Z,15.9
2018-11-11T11:14:12.390Z,16.0
2018-11-11T11:15:13.115Z,16.0
2018-11-11T11:16:13.888Z,16.0
2018-11-11T11:17:14.623Z,16.1
2018-11-11T11:18:15.351Z,15.9
2018-11-11T11:19:16.080Z,16.0
2018-11-11T11:20:16.811Z,16.0
2018-11-11T11:21:17.592Z,16.2
2018-11-11T11:22:18.311Z,16.0
2018-11-11T11:23:19.038Z,16.0
2018-11-11T11:24:19.764Z,16.0
2018-11-11T11:25:20.492Z,16.0
2018-11-11T11:26:21.218Z,16.0
2018-11-11T11:27:21.979Z,16.2
2018-11-11T11:28:22.772Z,16.4
2018-11-11T11:29:23.793Z,16.6
2018-11-11T11:30:24.512Z,16.7
2018-11-11T11:31:25.285Z,16.9
2018-11-11T11:32:26.244Z,16.8
2018-11-11T11:33:27.078Z,16.6
2018-11-11T11:34:27.814Z,16.6
2018-11-11T11:35:28.624Z,16.4
2018-11-11T11:36:29.276Z,16.6
2018-11-11T11:37:30.014Z,16.4
2018-11-11T11:38:30.744Z,16.9
2018-11-11T11:39:31.463Z,17.2
2018-11-11T11:40:32.188Z,17.0
2018-11-11T11:41:32.927Z,16.9
2018-11-11T11:42:33.699Z,17.0
2018-11-11T11:43:34.502Z,16.8
2018-11-11T11:44:35.231Z,16.7
2018-11-11T11:45:35.964Z,16.7
2018-11-11T11:46:36.688Z,16.6
2018-11-11T11:47:37.555Z,16.6
2018-11-11T11:48:38.171Z,16.4
2018-11-11T11:49:38.908Z,16.4
2018-11-11T11:50:39.644Z,16.3
2018-11-11T11:51:40.385Z,16.2
2018-11-11T11:52:41.138Z,16.3
2018-11-11T11:53:41.834Z,16.2
2018-11-11T11:54:42.560Z,16.1
2018-11-11T11:55:43.289Z,15.9
2018-11-11T11:56:44.024Z,16.0
2018-11-11T11:57:44.759Z,16.0
2018-11-11T11:58:45.531Z,15.9
2018-11-11T11:59:46.259Z,15.9
2018-11-11T12:00:47.095Z,15.8
2018-11-11T12:01:48.090Z,15.8
2018-11-11T12:02:48.832Z,15.8
2018-11-11T12:03:49.560Z,15.7
2018-11-11T12:04:50.286Z,15.7
2018-11-11T12:05:51.113Z,15.8
2018-11-11T12:06:51.850Z,15.8
2018-11-11T12:07:52.576Z,15.8
2018-11-11T12:08:53.642Z,15.7
2018-11-11T12:09:54.285Z,15.8
2018-11-11T12:10:55.336Z,15.8
2018-11-11T12:11:56.058Z,15.8
2018-11-11T12:12:56.779Z,15.8
2018-11-11T12:13:57.502Z,15.8
2018-11-11T12:14:58.289Z,15.8
2018-11-11T12:15:59.024Z,15.8
2018-11-11T12:16:59.784Z,15.8
2018-11-11T12:18:00.513Z,15.7
2018-11-11T12:19:01.239Z,15.6
2018-11-11T12:20:02.233Z,15.6
2018-11-11T12:21:02.958Z,15.7
2018-11-11T12:22:03.690Z,15.6
2018-11-11T12:23:04.442Z,15.7
2018-11-11T12:24:05.138Z,15.7
2018-11-11T12:25:06.777Z,15.7
2018-11-11T12:26:07.705Z,15.7
2018-11-11T12:27:08.451Z,15.6
2018-11-11T12:28:09.224Z,15.6
2018-11-11T12:29:10.011Z,15.6
2018-11-11T12:30:10.751Z,15.6
2018-11-11T12:31:12.881Z,15.6
2018-11-11T12:32:14.472Z,15.6
2018-11-11T12:33:15.278Z,15.5
2018-11-11T12:34:16.046Z,15.6
2018-11-11T12:35:16.763Z,15.5
2018-11-11T12:36:17.600Z,15.5
2018-11-11T12:37:18.343Z,15.5
2018-11-11T12:39:20.956Z,15.5
2018-11-11T12:40:21.975Z,15.5
2018-11-11T12:41:22.794Z,15.5
2018-11-11T12:42:23.519Z,15.5
2018-11-11T12:43:24.246Z,15.5
2018-11-11T12:44:25.006Z,15.5
2018-11-11T12:45:25.717Z,15.5
2018-11-11T12:46:27.162Z,15.5
2018-11-11T12:47:27.939Z,15.5
2018-11-11T12:48:28.777Z,15.5
2018-11-11T12:49:29.510Z,15.5
2018-11-11T12:50:30.351Z,15.7
2018-11-11T12:51:31.946Z,15.6
2018-11-11T12:52:32.866Z,15.8
2018-11-11T12:53:33.602Z,15.8
2018-11-11T12:54:34.335Z,15.9
2018-11-11T12:55:35.391Z,16.0
2018-11-11T12:56:36.078Z,16.1
2018-11-11T12:57:36.855Z,16.0
2018-11-11T12:58:37.580Z,16.0
2018-11-11T12:59:38.381Z,16.0
2018-11-11T13:00:39.116Z,15.9
2018-11-11T13:01:39.897Z,15.9
2018-11-11T13:02:41.511Z,15.8
2018-11-11T13:03:42.592Z,15.7
2018-11-11T13:04:43.339Z,15.6
2018-11-11T13:05:44.070Z,15.7
2018-11-11T13:06:44.960Z,15.6
2018-11-11T13:07:45.701Z,15.7
2018-11-11T13:08:46.433Z,15.6
2018-11-11T13:09:47.175Z,15.5
2018-11-11T13:10:47.898Z,15.5
2018-11-11T13:11:48.690Z,15.4
2018-11-11T13:12:49.718Z,15.4
2018-11-11T13:13:50.466Z,15.4
2018-11-11T13:14:51.161Z,15.4
2018-11-11T13:15:51.882Z,15.4
2018-11-11T13:16:52.613Z,15.4
2018-11-11T13:17:53.416Z,15.5
2018-11-11T13:18:54.288Z,15.5
2018-11-11T13:19:55.074Z,15.5
2018-11-11T13:20:55.827Z,15.6
2018-11-11T13:21:56.589Z,15.7
2018-11-11T13:22:57.805Z,15.6
2018-11-11T13:23:58.593Z,15.6
2018-11-11T13:24:59.985Z,15.6
2018-11-11T13:26:00.945Z,15.6
2018-11-11T13:27:02.143Z,15.5
2018-11-11T13:28:02.856Z,15.6
2018-11-11T13:29:03.579Z,15.5
2018-11-11T13:30:04.302Z,15.5
2018-11-11T13:31:05.035Z,15.5
2018-11-11T13:32:05.831Z,15.5